sensor_id;sensor_type;location;lat;lon;timestamp;pressure;altitude;pressure_sealevel;temperature;humidity
12172;BME280;6149;52.418;13.668;2022-08-30T00:01:22;101639.53;;;14.00;100.00
12172;BME280;6149;52.418;13.668;2022-08-30T00:03:49;101644.06;;;13.98;100.00
12172;BME280;6149;52.418;13.668;2022-08-30T00:06:17;101637.16;;;13.94;100.00
12172;BME280;6149;52.418;13.668;2022-08-30T00:08:45;101640.06;;;13.90;100.00
12172;BME280;6149;52.418;13.668;2022-08-30T00:11:15;101645.53;;;13.87;100.00
12172;BME280;6149;52.418;13.668;2022-08-30T00:13:45;101650.91;;;13.85;100.00
12172;BME280;6149;52.418;13.668;2022-08-30T00:16:16;101646.75;;;13.80;100.00
12172;BME280;6149;52.418;13.668;2022-08-30T00:18:43;101644.25;;;13.77;100.00
12172;BME280;6149;52.418;13.668;2022-08-30T00:21:10;101652.41;;;13.74;100.00
12172;BME280;6149;52.418;13.668;2022-08-30T00:23:37;101640.22;;;13.69;100.00
12172;BME280;6149;52.418;13.668;2022-08-30T00:26:05;101644.72;;;13.67;100.00
12172;BME280;6149;52.418;13.668;2022-08-30T00:28:32;101646.59;;;13.65;100.00
12172;BME280;6149;52.418;13.668;2022-08-30T00:31:00;101651.13;;;13.63;100.00
12172;BME280;6149;52.418;13.668;2022-08-30T00:33:28;101646.81;;;13.61;100.00
12172;BME280;6149;52.418;13.668;2022-08-30T00:35:55;101653.16;;;13.58;100.00
12172;BME280;6149;52.418;13.668;2022-08-30T00:38:22;101657.69;;;13.56;100.00
12172;BME280;6149;52.418;13.668;2022-08-30T00:40:49;101650.72;;;13.54;100.00
12172;BME280;6149;52.418;13.668;2022-08-30T00:43:19;101654.44;;;13.50;100.00
12172;BME280;6149;52.418;13.668;2022-08-30T00:45:49;101665.16;;;13.48;100.00
12172;BME280;6149;52.418;13.668;2022-08-30T00:48:16;101652.81;;;13.47;100.00
12172;BME280;6149;52.418;13.668;2022-08-30T00:50:47;101659.97;;;13.45;100.00
12172;BME280;6149;52.418;13.668;2022-08-30T00:53:19;101661.00;;;13.43;100.00
12172;BME280;6149;52.418;13.668;2022-08-30T00:55:48;101655.75;;;13.41;100.00
12172;BME280;6149;52.418;13.668;2022-08-30T00:58:19;101653.16;;;13.39;100.00
12172;BME280;6149;52.418;13.668;2022-08-30T01:00:48;101655.13;;;13.36;100.00
12172;BME280;6149;52.418;13.668;2022-08-30T01:03:17;101655.13;;;13.36;100.00
12172;BME280;6149;52.418;13.668;2022-08-30T01:05:47;101653.50;;;13.33;100.00
12172;BME280;6149;52.418;13.668;2022-08-30T01:08:16;101664.19;;;13.32;100.00
12172;BME280;6149;52.418;13.668;2022-08-30T01:10:44;101663.41;;;13.30;100.00
12172;BME280;6149;52.418;13.668;2022-08-30T01:13:11;101657.38;;;13.26;100.00
12172;BME280;6149;52.418;13.668;2022-08-30T01:15:38;101652.13;;;13.25;100.00
12172;BME280;6149;52.418;13.668;2022-08-30T01:18:05;101660.09;;;13.25;100.00
12172;BME280;6149;52.418;13.668;2022-08-30T01:20:38;101660.16;;;13.23;100.00
12172;BME280;6149;52.418;13.668;2022-08-30T01:23:12;101664.63;;;13.23;100.00
12172;BME280;6149;52.418;13.668;2022-08-30T01:25:43;101668.19;;;13.22;100.00
12172;BME280;6149;52.418;13.668;2022-08-30T01:28:14;101658.50;;;13.21;100.00
12172;BME280;6149;52.418;13.668;2022-08-30T01:30:43;101662.16;;;13.18;100.00
12172;BME280;6149;52.418;13.668;2022-08-30T01:33:10;101664.91;;;13.17;100.00
12172;BME280;6149;52.418;13.668;2022-08-30T01:35:43;101667.59;;;13.15;100.00
12172;BME280;6149;52.418;13.668;2022-08-30T01:38:15;101669.38;;;13.15;100.00
12172;BME280;6149;52.418;13.668;2022-08-30T01:40:43;101663.28;;;13.13;100.00
12172;BME280;6149;52.418;13.668;2022-08-30T01:43:11;101671.31;;;13.11;100.00
12172;BME280;6149;52.418;13.668;2022-08-30T01:45:38;101661.56;;;13.12;100.00
12172;BME280;6149;52.418;13.668;2022-08-30T01:48:05;101667.81;;;13.11;100.00
12172;BME280;6149;52.418;13.668;2022-08-30T01:50:32;101664.28;;;13.10;100.00
12172;BME280;6149;52.418;13.668;2022-08-30T01:52:59;101666.16;;;13.08;100.00
12172;BME280;6149;52.418;13.668;2022-08-30T01:55:27;101663.56;;;13.06;100.00
12172;BME280;6149;52.418;13.668;2022-08-30T01:57:54;101661.91;;;13.04;100.00
12172;BME280;6149;52.418;13.668;2022-08-30T02:00:20;101656.66;;;13.02;100.00
12172;BME280;6149;52.418;13.668;2022-08-30T02:02:47;101661.28;;;12.99;100.00
12172;BME280;6149;52.418;13.668;2022-08-30T02:05:14;101663.09;;;12.98;100.00
12172;BME280;6149;52.418;13.668;2022-08-30T02:07:41;101654.25;;;12.98;100.00
12172;BME280;6149;52.418;13.668;2022-08-30T02:10:08;101648.22;;;12.94;100.00
12172;BME280;6149;52.418;13.668;2022-08-30T02:12:36;101650.88;;;12.94;100.00
12172;BME280;6149;52.418;13.668;2022-08-30T02:15:04;101650.94;;;12.93;100.00
12172;BME280;6149;52.418;13.668;2022-08-30T02:17:31;101649.22;;;12.92;100.00
12172;BME280;6149;52.418;13.668;2022-08-30T02:19:58;101650.22;;;12.89;100.00
12172;BME280;6149;52.418;13.668;2022-08-30T02:22:24;101651.09;;;12.90;100.00
12172;BME280;6149;52.418;13.668;2022-08-30T02:24:51;101652.00;;;12.89;100.00
12172;BME280;6149;52.418;13.668;2022-08-30T02:27:17;101653.81;;;12.88;100.00
12172;BME280;6149;52.418;13.668;2022-08-30T02:29:45;101652.00;;;12.89;100.00
12172;BME280;6149;52.418;13.668;2022-08-30T02:32:11;101653.81;;;12.88;100.00
12172;BME280;6149;52.418;13.668;2022-08-30T02:34:38;101646.69;;;12.89;100.00
12172;BME280;6149;52.418;13.668;2022-08-30T02:37:05;101643.25;;;12.87;100.00
12172;BME280;6149;52.418;13.668;2022-08-30T02:39:33;101651.28;;;12.85;100.00
12172;BME280;6149;52.418;13.668;2022-08-30T02:41:59;101648.72;;;12.84;100.00
12172;BME280;6149;52.418;13.668;2022-08-30T02:44:26;101651.44;;;12.82;100.00
12172;BME280;6149;52.418;13.668;2022-08-30T02:46:54;101645.31;;;12.80;100.00
12172;BME280;6149;52.418;13.668;2022-08-30T02:49:20;101646.31;;;12.78;100.00
12172;BME280;6149;52.418;13.668;2022-08-30T02:51:47;101642.00;;;12.75;100.00
12172;BME280;6149;52.418;13.668;2022-08-30T02:54:14;101656.22;;;12.74;100.00
12172;BME280;6149;52.418;13.668;2022-08-30T02:56:44;101644.88;;;12.70;100.00
12172;BME280;6149;52.418;13.668;2022-08-30T02:59:10;101649.47;;;12.67;100.00
12172;BME280;6149;52.418;13.668;2022-08-30T03:01:37;101649.53;;;12.65;100.00
12172;BME280;6149;52.418;13.668;2022-08-30T03:04:05;101649.66;;;12.62;100.00
12172;BME280;6149;52.418;13.668;2022-08-30T03:06:33;101649.81;;;12.59;100.00
12172;BME280;6149;52.418;13.668;2022-08-30T03:08:59;101645.44;;;12.58;100.00
12172;BME280;6149;52.418;13.668;2022-08-30T03:11:27;101642.88;;;12.57;100.00
12172;BME280;6149;52.418;13.668;2022-08-30T03:13:53;101645.59;;;12.55;100.00
12172;BME280;6149;52.418;13.668;2022-08-30T03:16:20;101645.72;;;12.52;100.00
12172;BME280;6149;52.418;13.668;2022-08-30T03:18:47;101650.28;;;12.49;100.00
12172;BME280;6149;52.418;13.668;2022-08-30T03:21:16;101650.38;;;12.47;100.00
12172;BME280;6149;52.418;13.668;2022-08-30T03:23:43;101657.47;;;12.47;100.00
12172;BME280;6149;52.418;13.668;2022-08-30T03:26:10;101654.94;;;12.44;100.00
12172;BME280;6149;52.418;13.668;2022-08-30T03:28:39;101657.72;;;12.41;100.00
12172;BME280;6149;52.418;13.668;2022-08-30T03:31:07;101660.50;;;12.37;100.00
12172;BME280;6149;52.418;13.668;2022-08-30T03:33:35;101663.22;;;12.36;100.00
12172;BME280;6149;52.418;13.668;2022-08-30T03:36:02;101657.97;;;12.34;100.00
12172;BME280;6149;52.418;13.668;2022-08-30T03:38:31;101662.50;;;12.32;100.00
12172;BME280;6149;52.418;13.668;2022-08-30T03:40:57;101659.03;;;12.30;100.00
12172;BME280;6149;52.418;13.668;2022-08-30T03:43:24;101665.34;;;12.28;100.00
12172;BME280;6149;52.418;13.668;2022-08-30T03:45:50;101665.41;;;12.26;100.00
12172;BME280;6149;52.418;13.668;2022-08-30T03:48:17;101664.72;;;12.23;100.00
12172;BME280;6149;52.418;13.668;2022-08-30T03:50:44;101662.13;;;12.21;100.00
12172;BME280;6149;52.418;13.668;2022-08-30T03:53:11;101670.13;;;12.20;100.00
12172;BME280;6149;52.418;13.668;2022-08-30T03:55:39;101668.41;;;12.19;100.00
12172;BME280;6149;52.418;13.668;2022-08-30T03:58:05;101668.47;;;12.17;100.00
12172;BME280;6149;52.418;13.668;2022-08-30T04:00:32;101671.25;;;12.14;100.00
12172;BME280;6149;52.418;13.668;2022-08-30T04:02:58;101673.09;;;12.12;100.00
12172;BME280;6149;52.418;13.668;2022-08-30T04:05:25;101676.63;;;12.13;100.00
12172;BME280;6149;52.418;13.668;2022-08-30T04:07:52;101676.75;;;12.10;100.00
12172;BME280;6149;52.418;13.668;2022-08-30T04:10:19;101674.16;;;12.08;100.00
12172;BME280;6149;52.418;13.668;2022-08-30T04:12:48;101682.97;;;12.09;100.00
12172;BME280;6149;52.418;13.668;2022-08-30T04:15:16;101683.91;;;12.08;100.00
12172;BME280;6149;52.418;13.668;2022-08-30T04:17:43;101685.69;;;12.07;100.00
12172;BME280;6149;52.418;13.668;2022-08-30T04:20:10;101687.41;;;12.08;100.00
12172;BME280;6149;52.418;13.668;2022-08-30T04:22:37;101681.19;;;12.09;100.00
12172;BME280;6149;52.418;13.668;2022-08-30T04:25:05;101684.72;;;12.10;100.00
12172;BME280;6149;52.418;13.668;2022-08-30T04:27:33;101687.34;;;12.10;100.00
12172;BME280;6149;52.418;13.668;2022-08-30T04:30:01;101692.59;;;12.11;100.00
12172;BME280;6149;52.418;13.668;2022-08-30T04:32:27;101697.84;;;12.13;100.00
12172;BME280;6149;52.418;13.668;2022-08-30T04:34:55;101696.91;;;12.14;100.00
12172;BME280;6149;52.418;13.668;2022-08-30T04:37:22;101698.63;;;12.15;100.00
12172;BME280;6149;52.418;13.668;2022-08-30T04:39:49;101704.75;;;12.17;100.00
12172;BME280;6149;52.418;13.668;2022-08-30T04:42:16;101704.66;;;12.18;100.00
12172;BME280;6149;52.418;13.668;2022-08-30T04:44:42;101703.75;;;12.19;100.00
12172;BME280;6149;52.418;13.668;2022-08-30T04:47:10;101701.91;;;12.21;100.00
12172;BME280;6149;52.418;13.668;2022-08-30T04:49:37;101705.28;;;12.25;100.00
12172;BME280;6149;52.418;13.668;2022-08-30T04:52:04;101705.13;;;12.28;100.00
12172;BME280;6149;52.418;13.668;2022-08-30T04:54:33;101702.34;;;12.31;100.00
12172;BME280;6149;52.418;13.668;2022-08-30T04:56:59;101702.28;;;12.32;100.00
12172;BME280;6149;52.418;13.668;2022-08-30T04:59:28;101699.50;;;12.35;100.00
12172;BME280;6149;52.418;13.668;2022-08-30T05:01:55;101701.16;;;12.38;100.00
12172;BME280;6149;52.418;13.668;2022-08-30T05:04:23;101700.16;;;12.41;100.00
12172;BME280;6149;52.418;13.668;2022-08-30T05:06:49;101697.44;;;12.42;100.00
12172;BME280;6149;52.418;13.668;2022-08-30T05:09:17;101696.44;;;12.45;100.00
12172;BME280;6149;52.418;13.668;2022-08-30T05:11:45;101703.41;;;12.47;100.00
12172;BME280;6149;52.418;13.668;2022-08-30T05:14:12;101705.94;;;12.50;100.00
12172;BME280;6149;52.418;13.668;2022-08-30T05:16:38;101701.50;;;12.51;100.00
12172;BME280;6149;52.418;13.668;2022-08-30T05:19:05;101707.53;;;12.54;100.00
12172;BME280;6149;52.418;13.668;2022-08-30T05:21:34;101708.28;;;12.58;100.00
12172;BME280;6149;52.418;13.668;2022-08-30T05:24:01;101710.78;;;12.61;100.00
12172;BME280;6149;52.418;13.668;2022-08-30T05:26:29;101714.13;;;12.64;100.00
12172;BME280;6149;52.418;13.668;2022-08-30T05:28:57;101722.75;;;12.69;100.00
12172;BME280;6149;52.418;13.668;2022-08-30T05:31:26;101715.47;;;12.75;100.00
12172;BME280;6149;52.418;13.668;2022-08-30T05:33:54;101710.81;;;12.80;100.00
12172;BME280;6149;52.418;13.668;2022-08-30T05:36:23;101724.69;;;12.86;100.00
12172;BME280;6149;52.418;13.668;2022-08-30T05:38:53;101720.91;;;12.92;100.00
12172;BME280;6149;52.418;13.668;2022-08-30T05:41:21;101720.63;;;12.98;100.00
12172;BME280;6149;52.418;13.668;2022-08-30T05:43:51;101714.94;;;13.05;100.00
12172;BME280;6149;52.418;13.668;2022-08-30T05:46:18;101721.72;;;13.13;100.00
12172;BME280;6149;52.418;13.668;2022-08-30T05:48:46;101718.72;;;13.20;100.00
12172;BME280;6149;52.418;13.668;2022-08-30T05:51:15;101720.19;;;13.27;100.00
12172;BME280;6149;52.418;13.668;2022-08-30T05:53:43;101721.63;;;13.34;100.00
12172;BME280;6149;52.418;13.668;2022-08-30T05:56:13;101727.41;;;13.43;100.00
12172;BME280;6149;52.418;13.668;2022-08-30T05:58:43;101723.47;;;13.51;100.00
12172;BME280;6149;52.418;13.668;2022-08-30T06:01:22;101726.56;;;13.61;100.00
12172;BME280;6149;52.418;13.668;2022-08-30T06:03:51;101735.81;;;13.71;100.00
12172;BME280;6149;52.418;13.668;2022-08-30T06:06:19;101726.44;;;13.81;100.00
12172;BME280;6149;52.418;13.668;2022-08-30T06:08:45;101730.47;;;13.90;100.00
12172;BME280;6149;52.418;13.668;2022-08-30T06:11:16;101726.34;;;14.01;100.00
12172;BME280;6149;52.418;13.668;2022-08-30T06:13:45;101728.38;;;14.14;100.00
12172;BME280;6149;52.418;13.668;2022-08-30T06:16:13;101724.31;;;14.24;100.00
12172;BME280;6149;52.418;13.668;2022-08-30T06:18:41;101729.91;;;14.36;100.00
12172;BME280;6149;52.418;13.668;2022-08-30T06:21:14;101743.44;;;14.49;100.00
12172;BME280;6149;52.418;13.668;2022-08-30T06:23:41;101737.44;;;14.63;100.00
12172;BME280;6149;52.418;13.668;2022-08-30T06:26:09;101735.00;;;14.76;100.00
12172;BME280;6149;52.418;13.668;2022-08-30T06:28:37;101740.69;;;14.85;100.00
12172;BME280;6149;52.418;13.668;2022-08-30T06:31:04;101731.34;;;14.94;100.00
12172;BME280;6149;52.418;13.668;2022-08-30T06:33:31;101735.16;;;15.05;100.00
12172;BME280;6149;52.418;13.668;2022-08-30T06:36:01;101732.94;;;15.14;100.00
12172;BME280;6149;52.418;13.668;2022-08-30T06:38:27;101736.91;;;15.22;100.00
12172;BME280;6149;52.418;13.668;2022-08-30T06:40:54;101736.41;;;15.31;100.00
12172;BME280;6149;52.418;13.668;2022-08-30T06:43:20;101732.47;;;15.38;100.00
12172;BME280;6149;52.418;13.668;2022-08-30T06:45:48;101733.84;;;15.46;100.00
12172;BME280;6149;52.418;13.668;2022-08-30T06:48:15;101740.47;;;15.54;100.00
12172;BME280;6149;52.418;13.668;2022-08-30T06:50:42;101731.28;;;15.60;100.00
12172;BME280;6149;52.418;13.668;2022-08-30T06:53:09;101742.31;;;15.69;100.00
12172;BME280;6149;52.418;13.668;2022-08-30T06:55:36;101748.94;;;15.78;100.00
12172;BME280;6149;52.418;13.668;2022-08-30T06:58:03;101745.75;;;15.87;100.00
12172;BME280;6149;52.418;13.668;2022-08-30T07:00:30;101745.13;;;15.98;100.00
12172;BME280;6149;52.418;13.668;2022-08-30T07:02:58;101741.75;;;16.10;100.00
12172;BME280;6149;52.418;13.668;2022-08-30T07:05:26;101749.31;;;16.18;100.00
12172;BME280;6149;52.418;13.668;2022-08-30T07:07:53;101744.41;;;16.26;100.00
12172;BME280;6149;52.418;13.668;2022-08-30T07:10:20;101742.97;;;16.34;100.00
12172;BME280;6149;52.418;13.668;2022-08-30T07:12:47;101748.72;;;16.43;100.00
12172;BME280;6149;52.418;13.668;2022-08-30T07:15:14;101751.63;;;16.54;100.00
12172;BME280;6149;52.418;13.668;2022-08-30T07:17:44;101754.72;;;16.62;100.00
12172;BME280;6149;52.418;13.668;2022-08-30T07:20:30;101745.69;;;16.64;100.00
12172;BME280;6149;52.418;13.668;2022-08-30T07:22:56;101752.66;;;16.67;100.00
12172;BME280;6149;52.418;13.668;2022-08-30T07:25:23;101757.22;;;16.79;100.00
12172;BME280;6149;52.418;13.668;2022-08-30T07:27:50;101762.47;;;16.81;100.00
12172;BME280;6149;52.418;13.668;2022-08-30T07:30:17;101757.63;;;16.87;100.00
12172;BME280;6149;52.418;13.668;2022-08-30T07:32:44;101765.69;;;17.01;100.00
12172;BME280;6149;52.418;13.668;2022-08-30T07:35:10;101758.22;;;17.21;100.00
12172;BME280;6149;52.418;13.668;2022-08-30T07:37:38;101760.03;;;17.34;100.00
12172;BME280;6149;52.418;13.668;2022-08-30T07:40:06;101754.47;;;17.52;100.00
12172;BME280;6149;52.418;13.668;2022-08-30T07:42:33;101759.25;;;17.75;100.00
12172;BME280;6149;52.418;13.668;2022-08-30T07:45:00;101762.34;;;17.96;100.00
12172;BME280;6149;52.418;13.668;2022-08-30T07:47:27;101766.28;;;18.17;100.00
12172;BME280;6149;52.418;13.668;2022-08-30T07:49:53;101766.31;;;18.30;100.00
12172;BME280;6149;52.418;13.668;2022-08-30T07:52:20;101772.13;;;18.36;100.00
12172;BME280;6149;52.418;13.668;2022-08-30T07:54:48;101768.16;;;18.42;100.00
12172;BME280;6149;52.418;13.668;2022-08-30T07:57:14;101772.38;;;18.59;100.00
12172;BME280;6149;52.418;13.668;2022-08-30T07:59:41;101780.94;;;18.51;100.00
12172;BME280;6149;52.418;13.668;2022-08-30T08:02:08;101776.66;;;18.49;100.00
12172;BME280;6149;52.418;13.668;2022-08-30T08:04:34;101772.81;;;18.53;100.00
12172;BME280;6149;52.418;13.668;2022-08-30T08:07:01;101777.44;;;18.63;100.00
12172;BME280;6149;52.418;13.668;2022-08-30T08:09:27;101775.88;;;18.74;100.00
12172;BME280;6149;52.418;13.668;2022-08-30T08:11:55;101777.19;;;18.93;100.00
12172;BME280;6149;52.418;13.668;2022-08-30T08:14:22;101772.44;;;19.10;100.00
12172;BME280;6149;52.418;13.668;2022-08-30T08:16:48;101774.25;;;19.47;100.00
12172;BME280;6149;52.418;13.668;2022-08-30T08:19:15;101776.19;;;19.58;99.58
12172;BME280;6149;52.418;13.668;2022-08-30T08:21:44;101774.16;;;19.61;99.05
12172;BME280;6149;52.418;13.668;2022-08-30T08:24:11;101781.34;;;19.61;96.15
12172;BME280;6149;52.418;13.668;2022-08-30T08:26:38;101787.88;;;19.57;97.81
12172;BME280;6149;52.418;13.668;2022-08-30T08:29:07;101782.41;;;19.58;96.63
12172;BME280;6149;52.418;13.668;2022-08-30T08:31:35;101782.88;;;19.76;95.61
12172;BME280;6149;52.418;13.668;2022-08-30T08:34:03;101789.34;;;19.74;95.75
12172;BME280;6149;52.418;13.668;2022-08-30T08:36:30;101785.34;;;19.79;95.12
12172;BME280;6149;52.418;13.668;2022-08-30T08:38:58;101783.41;;;19.81;93.95
12172;BME280;6149;52.418;13.668;2022-08-30T08:41:40;101792.97;;;19.85;93.02
12172;BME280;6149;52.418;13.668;2022-08-30T08:44:24;101788.63;;;19.95;92.89
12172;BME280;6149;52.418;13.668;2022-08-30T08:47:03;101793.25;;;19.93;92.04
12172;BME280;6149;52.418;13.668;2022-08-30T08:49:38;101793.16;;;19.95;92.86
12172;BME280;6149;52.418;13.668;2022-08-30T08:52:07;101803.09;;;20.06;92.99
12172;BME280;6149;52.418;13.668;2022-08-30T08:54:58;101800.66;;;20.02;92.89
12172;BME280;6149;52.418;13.668;2022-08-30T08:57:32;101798.72;;;20.05;93.78
12172;BME280;6149;52.418;13.668;2022-08-30T09:00:02;101801.09;;;20.20;92.57
12172;BME280;6149;52.418;13.668;2022-08-30T09:02:39;101793.16;;;20.19;90.56
12172;BME280;6149;52.418;13.668;2022-08-30T09:05:08;101802.47;;;20.26;91.39
12172;BME280;6149;52.418;13.668;2022-08-30T09:07:41;101795.56;;;20.34;91.01
12172;BME280;6149;52.418;13.668;2022-08-30T09:10:10;101797.09;;;20.39;88.93
12172;BME280;6149;52.418;13.668;2022-08-30T09:12:37;101803.44;;;20.49;88.71
12172;BME280;6149;52.418;13.668;2022-08-30T09:15:09;101801.16;;;20.55;88.59
12172;BME280;6149;52.418;13.668;2022-08-30T09:17:52;101805.00;;;20.64;86.59
12172;BME280;6149;52.418;13.668;2022-08-30T09:20:26;101796.34;;;20.83;86.43
12172;BME280;6149;52.418;13.668;2022-08-30T09:22:57;101795.63;;;20.81;83.82
12172;BME280;6149;52.418;13.668;2022-08-30T09:25:26;101805.44;;;20.93;85.46
12172;BME280;6149;52.418;13.668;2022-08-30T09:27:54;101804.06;;;20.87;84.75
12172;BME280;6149;52.418;13.668;2022-08-30T09:30:36;101806.56;;;21.01;84.56
12172;BME280;6149;52.418;13.668;2022-08-30T09:33:05;101804.94;;;20.88;84.63
12172;BME280;6149;52.418;13.668;2022-08-30T09:35:43;101802.88;;;21.02;85.53
12172;BME280;6149;52.418;13.668;2022-08-30T09:38:16;101804.09;;;20.98;85.59
12172;BME280;6149;52.418;13.668;2022-08-30T09:40:46;101796.16;;;20.97;84.47
12172;BME280;6149;52.418;13.668;2022-08-30T09:43:21;101806.28;;;20.93;84.15
12172;BME280;6149;52.418;13.668;2022-08-30T09:46:07;101813.41;;;21.06;81.48
12172;BME280;6149;52.418;13.668;2022-08-30T09:48:36;101807.03;;;20.95;80.62
12172;BME280;6149;52.418;13.668;2022-08-30T09:51:15;101814.81;;;20.87;80.47
12172;BME280;6149;52.418;13.668;2022-08-30T09:54:15;101795.13;;;20.87;81.79
12172;BME280;6149;52.418;13.668;2022-08-30T09:56:51;101807.88;;;20.96;82.08
12172;BME280;6149;52.418;13.668;2022-08-30T09:59:35;101807.28;;;21.03;80.55
12172;BME280;6149;52.418;13.668;2022-08-30T10:02:23;101797.03;;;21.20;80.70
12172;BME280;6149;52.418;13.668;2022-08-30T10:05:02;101798.75;;;21.10;79.66
12172;BME280;6149;52.418;13.668;2022-08-30T10:07:39;101806.41;;;20.92;78.87
12172;BME280;6149;52.418;13.668;2022-08-30T10:10:15;101815.06;;;20.84;79.04
12172;BME280;6149;52.418;13.668;2022-08-30T10:12:53;101807.50;;;20.89;79.15
12172;BME280;6149;52.418;13.668;2022-08-30T10:15:33;101807.22;;;20.81;81.51
12172;BME280;6149;52.418;13.668;2022-08-30T10:18:11;101808.06;;;20.71;84.19
12172;BME280;6149;52.418;13.668;2022-08-30T10:20:52;101805.00;;;20.64;86.50
12172;BME280;6149;52.418;13.668;2022-08-30T10:23:24;101813.16;;;20.62;88.30
12172;BME280;6149;52.418;13.668;2022-08-30T10:25:56;101797.63;;;20.55;88.25
12172;BME280;6149;52.418;13.668;2022-08-30T10:28:40;101797.84;;;20.52;87.11
12172;BME280;6149;52.418;13.668;2022-08-30T10:31:16;101798.31;;;20.46;84.91
12172;BME280;6149;52.418;13.668;2022-08-30T10:33:56;101801.03;;;20.57;86.80
12172;BME280;6149;52.418;13.668;2022-08-30T10:36:30;101792.69;;;20.73;85.15
12172;BME280;6149;52.418;13.668;2022-08-30T10:39:00;101790.22;;;20.69;82.24
12172;BME280;6149;52.418;13.668;2022-08-30T10:41:33;101798.91;;;20.84;82.35
12172;BME280;6149;52.418;13.668;2022-08-30T10:44:05;101793.44;;;20.86;80.61
12172;BME280;6149;52.418;13.668;2022-08-30T10:46:38;101784.56;;;21.08;79.68
12172;BME280;6149;52.418;13.668;2022-08-30T10:49:12;101781.00;;;21.07;80.63
12172;BME280;6149;52.418;13.668;2022-08-30T10:51:46;101786.66;;;21.15;78.23
12172;BME280;6149;52.418;13.668;2022-08-30T10:54:22;101781.84;;;21.19;76.68
12172;BME280;6149;52.418;13.668;2022-08-30T10:56:56;101785.69;;;21.16;76.75
12172;BME280;6149;52.418;13.668;2022-08-30T10:59:23;101782.28;;;21.37;75.68
12172;BME280;6149;52.418;13.668;2022-08-30T11:02:04;101787.53;;;21.38;74.48
12172;BME280;6149;52.418;13.668;2022-08-30T11:05:11;101788.28;;;21.40;72.78
12172;BME280;6149;52.418;13.668;2022-08-30T11:07:52;101786.69;;;21.38;73.15
12172;BME280;6149;52.418;13.668;2022-08-30T11:10:44;101790.00;;;21.52;73.57
12172;BME280;6149;52.418;13.668;2022-08-30T11:13:20;101790.94;;;21.62;71.27
12172;BME280;6149;52.418;13.668;2022-08-30T11:15:55;101785.56;;;21.74;72.77
12172;BME280;6149;52.418;13.668;2022-08-30T11:18:27;101777.84;;;21.80;68.50
12172;BME280;6149;52.418;13.668;2022-08-30T11:21:22;101784.56;;;21.86;64.97
12172;BME280;6149;52.418;13.668;2022-08-30T11:24:00;101788.06;;;21.97;66.20
12172;BME280;6149;52.418;13.668;2022-08-30T11:26:52;101791.00;;;21.94;67.10
12172;BME280;6149;52.418;13.668;2022-08-30T11:29:40;101782.34;;;22.02;64.84
12172;BME280;6149;52.418;13.668;2022-08-30T11:35:38;101773.97;;;22.16;66.25
12172;BME280;6149;52.418;13.668;2022-08-30T11:38:16;101775.50;;;22.30;63.67
12172;BME280;6149;52.418;13.668;2022-08-30T11:40:50;101775.63;;;22.28;62.44
12172;BME280;6149;52.418;13.668;2022-08-30T11:43:49;101775.13;;;22.34;66.33
12172;BME280;6149;52.418;13.668;2022-08-30T11:46:33;101770.78;;;22.43;60.79
12172;BME280;6149;52.418;13.668;2022-08-30T11:49:26;101760.53;;;22.37;60.96
12172;BME280;6149;52.418;13.668;2022-08-30T11:52:13;101764.28;;;22.46;62.32
12172;BME280;6149;52.418;13.668;2022-08-30T11:55:03;101759.28;;;22.41;59.89
12172;BME280;6149;52.418;13.668;2022-08-30T11:57:49;101757.91;;;22.47;59.60
12172;BME280;6149;52.418;13.668;2022-08-30T12:00:29;101752.72;;;22.55;61.21
12172;BME280;6149;52.418;13.668;2022-08-30T12:02:58;101745.50;;;22.55;57.94
12172;BME280;6149;52.418;13.668;2022-08-30T12:05:54;101747.53;;;22.63;59.02
12172;BME280;6149;52.418;13.668;2022-08-30T12:08:47;101749.56;;;22.71;61.10
12172;BME280;6149;52.418;13.668;2022-08-30T12:14:41;101745.47;;;22.76;59.63
12172;BME280;6149;52.418;13.668;2022-08-30T12:17:26;101752.50;;;22.79;60.08
12172;BME280;6149;52.418;13.668;2022-08-30T12:20:17;101748.56;;;22.72;57.67
12172;BME280;6149;52.418;13.668;2022-08-30T12:22:48;101740.84;;;22.78;58.33
12172;BME280;6149;52.418;13.668;2022-08-30T12:25:23;101744.28;;;22.69;58.23
12172;BME280;6149;52.418;13.668;2022-08-30T12:28:10;101744.13;;;22.82;60.06
12172;BME280;6149;52.418;13.668;2022-08-30T12:30:39;101731.09;;;22.87;59.80
12172;BME280;6149;52.418;13.668;2022-08-30T12:33:09;101735.56;;;22.97;60.33
12172;BME280;6149;52.418;13.668;2022-08-30T12:35:39;101726.22;;;23.02;58.82
12172;BME280;6149;52.418;13.668;2022-08-30T12:38:13;101737.16;;;23.00;59.89
12172;BME280;6149;52.418;13.668;2022-08-30T12:40:52;101732.09;;;23.16;58.37
12172;BME280;6149;52.418;13.668;2022-08-30T12:43:29;101723.59;;;23.21;58.33
12172;BME280;6149;52.418;13.668;2022-08-30T12:46:00;101717.34;;;23.20;57.72
12172;BME280;6149;52.418;13.668;2022-08-30T12:48:33;101718.41;;;23.08;56.82
12172;BME280;6149;52.418;13.668;2022-08-30T12:51:01;101717.03;;;23.14;56.92
12172;BME280;6149;52.418;13.668;2022-08-30T12:53:30;101717.03;;;23.14;57.94
12172;BME280;6149;52.418;13.668;2022-08-30T12:56:02;101712.81;;;23.21;56.99
12172;BME280;6149;52.418;13.668;2022-08-30T12:58:37;101711.91;;;23.11;56.84
12172;BME280;6149;52.418;13.668;2022-08-30T13:01:26;101705.78;;;23.09;57.49
12172;BME280;6149;52.418;13.668;2022-08-30T13:03:56;101706.16;;;23.25;58.05
12172;BME280;6149;52.418;13.668;2022-08-30T13:06:40;101712.81;;;23.21;57.04
12172;BME280;6149;52.418;13.668;2022-08-30T13:09:19;101694.63;;;23.23;56.02